createdAt,value
2024-01-07T00:01:24.357Z,-0.60
2024-01-07T00:03:54.094Z,-0.50
2024-01-07T00:06:22.472Z,-0.60
2024-01-07T00:08:50.851Z,-0.60
2024-01-07T00:11:20.557Z,-0.70
2024-01-07T00:13:48.863Z,-0.70
2024-01-07T00:16:17.191Z,-0.80
2024-01-07T00:18:46.001Z,-0.80
2024-01-07T00:21:14.306Z,-0.80
2024-01-07T00:23:42.551Z,-0.90
2024-01-07T00:26:12.089Z,-0.90
2024-01-07T00:28:41.627Z,-1.00
2024-01-07T00:31:10.504Z,-1.00
2024-01-07T00:33:39.334Z,-1.00
2024-01-07T00:36:07.972Z,-1.00
2024-01-07T00:38:36.173Z,-1.00
2024-01-07T00:41:04.599Z,-0.90
2024-01-07T00:43:32.880Z,-0.90
2024-01-07T00:46:03.155Z,-1.00
2024-01-07T00:48:31.487Z,-1.00
2024-01-07T00:50:59.765Z,-1.00
2024-01-07T00:53:28.000Z,-1.00
2024-01-07T00:55:56.153Z,-1.10
2024-01-07T00:58:24.332Z,-1.20
2024-01-07T01:00:55.217Z,-1.10
2024-01-07T01:03:25.558Z,-1.10
2024-01-07T01:05:54.039Z,-1.10
2024-01-07T01:08:22.244Z,-1.00
2024-01-07T01:10:50.484Z,-1.10
2024-01-07T01:13:18.661Z,-1.10
2024-01-07T01:15:47.118Z,-1.10
2024-01-07T01:18:15.438Z,-1.00
2024-01-07T01:20:45.124Z,-1.10
2024-01-07T01:23:13.554Z,-1.00
2024-01-07T01:25:41.894Z,-1.10
2024-01-07T01:28:10.185Z,-1.10
2024-01-07T01:30:38.515Z,-1.10
2024-01-07T01:33:07.102Z,-1.20
2024-01-07T01:35:35.349Z,-1.10
2024-01-07T01:38:05.021Z,-1.20
2024-01-07T01:40:33.220Z,-1.20
2024-01-07T01:43:01.387Z,-1.20
2024-01-07T01:45:29.684Z,-1.10
2024-01-07T01:47:58.100Z,-1.20
2024-01-07T01:50:27.154Z,-1.10
2024-01-07T01:52:57.393Z,-1.10
2024-01-07T01:55:27.066Z,-1.20
2024-01-07T01:57:57.199Z,-1.20
2024-01-07T02:00:25.458Z,-1.10
2024-01-07T02:02:53.879Z,-1.20
2024-01-07T02:05:22.181Z,-1.10
2024-01-07T02:07:50.518Z,-1.00
2024-01-07T02:10:19.028Z,-0.90
2024-01-07T02:12:49.299Z,-1.00
2024-01-07T02:15:17.717Z,-1.00
2024-01-07T02:17:46.128Z,-1.00
2024-01-07T02:20:14.317Z,-1.00
2024-01-07T02:22:42.457Z,-0.90
2024-01-07T02:25:12.079Z,-1.00
2024-01-07T02:27:40.317Z,-1.00
2024-01-07T02:30:09.814Z,-1.00
2024-01-07T02:32:39.086Z,-0.90
2024-01-07T02:35:07.933Z,-0.80
2024-01-07T02:37:36.790Z,-0.90
2024-01-07T02:40:05.280Z,-0.90
2024-01-07T02:42:34.934Z,-0.80
2024-01-07T02:45:03.083Z,-0.80
2024-01-07T02:47:32.210Z,-0.70
2024-01-07T02:50:00.377Z,-0.70
2024-01-07T02:52:28.657Z,-0.70
2024-01-07T02:54:56.776Z,-0.60
2024-01-07T02:57:25.006Z,-0.60
2024-01-07T02:59:54.730Z,-0.60
2024-01-07T03:02:23.164Z,-0.60
2024-01-07T03:04:51.409Z,-0.60
2024-01-07T03:07:19.689Z,-0.60
2024-01-07T03:09:48.871Z,-0.50
2024-01-07T03:12:17.483Z,-0.60
2024-01-07T03:14:45.899Z,-0.60
2024-01-07T03:17:16.151Z,-0.60
2024-01-07T03:19:44.502Z,-0.50
2024-01-07T03:22:12.750Z,-0.40
2024-01-07T03:24:41.015Z,-0.40
2024-01-07T03:27:09.231Z,-0.30
2024-01-07T03:29:37.601Z,-0.30
2024-01-07T03:32:06.518Z,-0.50
2024-01-07T03:34:36.257Z,-0.40
2024-01-07T03:37:04.681Z,-0.40
2024-01-07T03:39:34.802Z,-0.40
2024-01-07T03:42:03.108Z,-0.40
2024-01-07T03:44:31.373Z,-0.40
2024-01-07T03:46:59.557Z,-0.30
2024-01-07T03:49:27.855Z,-0.30
2024-01-07T03:51:57.480Z,-0.20
2024-01-07T03:54:25.832Z,-0.20
2024-01-07T03:56:54.001Z,-0.20
2024-01-07T03:59:24.369Z,-0.10
2024-01-07T04:01:52.828Z,-0.10
2024-01-07T04:04:21.099Z,-0.10
2024-01-07T04:06:49.388Z,0.00
2024-01-07T04:09:19.014Z,0.00
2024-01-07T04:11:47.223Z,0.00
2024-01-07T04:14:17.132Z,0.00
2024-01-07T04:16:45.424Z,0.00
2024-01-07T04:19:13.833Z,0.10
2024-01-07T04:21:42.055Z,0.10
2024-01-07T04:24:10.250Z,0.10
2024-01-07T04:26:39.794Z,0.10
2024-01-07T04:29:08.377Z,0.20
2024-01-07T04:31:36.672Z,0.20
2024-01-07T04:34:05.110Z,0.20
2024-01-07T04:36:33.284Z,0.20
2024-01-07T04:39:01.505Z,0.20
2024-01-07T04:41:29.770Z,0.10
2024-01-07T04:43:59.277Z,0.20
2024-01-07T04:46:27.401Z,0.30
2024-01-07T04:48:55.674Z,0.40
2024-01-07T04:51:23.876Z,0.40
2024-01-07T04:53:52.020Z,0.40
2024-01-07T04:56:20.280Z,0.50
2024-01-07T04:58:48.522Z,0.50
2024-01-07T05:01:18.202Z,0.40
2024-01-07T05:03:46.548Z,0.50
2024-01-07T05:06:14.836Z,0.50
2024-01-07T05:08:43.332Z,0.60
2024-01-07T05:11:12.546Z,0.60
2024-01-07T05:13:40.742Z,0.60
2024-01-07T05:16:09.127Z,0.50
2024-01-07T05:18:38.847Z,0.40
2024-01-07T05:21:08.357Z,0.40
2024-01-07T05:23:36.572Z,0.40
2024-01-07T05:26:04.983Z,0.40
2024-01-07T05:28:33.202Z,0.50
2024-01-07T05:31:01.482Z,0.40
2024-01-07T05:33:29.768Z,0.50
2024-01-07T05:35:59.399Z,0.50
2024-01-07T05:38:29.264Z,0.50
2024-01-07T05:40:58.769Z,0.40
2024-01-07T05:43:27.066Z,0.30
2024-01-07T05:45:55.241Z,0.30
2024-01-07T05:48:24.172Z,0.30
2024-01-07T05:50:52.327Z,0.20
2024-01-07T05:53:21.884Z,0.20
2024-01-07T05:55:50.055Z,0.30
2024-01-07T05:58:18.204Z,0.20
2024-01-07T06:00:46.716Z,0.20
2024-01-07T06:03:15.026Z,0.20
2024-01-07T06:05:43.319Z,0.20
2024-01-07T06:08:13.584Z,0.20
2024-01-07T06:10:43.381Z,0.20
2024-01-07T06:13:11.716Z,0.10
2024-01-07T06:15:40.049Z,0.10
2024-01-07T06:18:08.537Z,0.10
2024-01-07T06:20:36.784Z,0.10
2024-01-07T06:23:05.438Z,0.10
2024-01-07T06:25:33.548Z,0.10
2024-01-07T06:28:04.114Z,0.10
2024-01-07T06:30:32.649Z,0.00
2024-01-07T06:33:00.992Z,0.10
2024-01-07T06:35:29.200Z,0.10
2024-01-07T06:37:57.382Z,0.20
2024-01-07T06:40:25.672Z,0.10
2024-01-07T06:42:54.396Z,0.10
2024-01-07T06:45:24.471Z,0.10
2024-01-07T06:47:52.719Z,0.10
2024-01-07T06:50:21.485Z,0.00
2024-01-07T06:52:50.630Z,0.00
2024-01-07T06:55:18.963Z,0.10
2024-01-07T06:57:47.239Z,0.10
2024-01-07T07:00:16.548Z,0.10
2024-01-07T07:02:46.055Z,0.10
2024-01-07T07:05:14.372Z,0.10
2024-01-07T07:07:42.630Z,0.10
2024-01-07T07:10:11.285Z,0.10
2024-01-07T07:12:39.523Z,0.00
2024-01-07T07:15:10.756Z,0.00
2024-01-07T07:17:42.166Z,0.00
2024-01-07T07:20:13.264Z,0.10
2024-01-07T07:22:41.618Z,0.10
2024-01-07T07:25:10.668Z,0.10
2024-01-07T07:27:39.305Z,0.10
2024-01-07T07:30:09.396Z,0.10
2024-01-07T07:32:37.808Z,0.10
2024-01-07T07:35:08.519Z,0.10
2024-01-07T07:37:39.211Z,0.00
2024-01-07T07:40:08.529Z,0.10
2024-01-07T07:42:36.790Z,0.10
2024-01-07T07:45:05.532Z,0.00
2024-01-07T07:47:34.177Z,0.00
2024-01-07T07:50:03.432Z,-0.10
2024-01-07T07:52:32.565Z,-0.10
2024-01-07T07:55:04.797Z,-0.10
2024-01-07T07:57:33.210Z,-0.10
2024-01-07T08:00:04.606Z,-0.20
2024-01-07T08:02:34.028Z,-0.30
2024-01-07T08:05:02.208Z,-0.40
2024-01-07T08:07:30.377Z,-0.40
2024-01-07T08:09:59.114Z,-0.40
2024-01-07T08:12:29.081Z,-0.60
2024-01-07T08:14:57.357Z,-0.50
2024-01-07T08:17:26.585Z,-0.50
2024-01-07T08:19:56.083Z,-0.60
2024-01-07T08:22:24.732Z,-0.60
2024-01-07T08:24:52.937Z,-0.60
2024-01-07T08:27:21.112Z,-0.60
2024-01-07T08:29:50.628Z,-0.60
2024-01-07T08:32:18.958Z,-0.70
2024-01-07T08:34:47.254Z,-0.70
2024-01-07T08:37:15.516Z,-0.70
2024-01-07T08:39:43.934Z,-0.70
2024-01-07T08:42:12.168Z,-0.70
2024-01-07T08:44:40.446Z,-0.60
2024-01-07T08:47:10.323Z,-0.70
2024-01-07T08:49:39.857Z,-0.50
2024-01-07T08:52:08.752Z,-0.60
2024-01-07T08:54:37.511Z,-0.60
2024-01-07T08:57:06.318Z,-0.60
2024-01-07T08:59:37.929Z,-0.70
2024-01-07T09:02:07.054Z,-0.80
2024-01-07T09:04:37.759Z,-0.80
2024-01-07T09:07:06.478Z,-0.80
2024-01-07T09:09:34.870Z,-0.90
2024-01-07T09:12:04.719Z,-0.90
2024-01-07T09:14:32.925Z,-0.90
2024-01-07T09:17:01.118Z,-0.80
2024-01-07T09:19:29.433Z,-0.80
2024-01-07T09:21:59.088Z,-0.90
2024-01-07T09:24:27.552Z,-1.00
2024-01-07T09:26:55.765Z,-1.00
2024-01-07T09:29:23.886Z,-1.00
2024-01-07T09:31:52.154Z,-0.90
2024-01-07T09:34:20.415Z,-0.90
2024-01-07T09:36:48.688Z,-0.90
2024-01-07T09:39:18.250Z,-0.90
2024-01-07T09:41:46.785Z,-0.90
2024-01-07T09:44:15.808Z,-0.90
2024-01-07T09:46:44.869Z,-1.10
2024-01-07T09:49:13.091Z,-1.00
2024-01-07T09:51:43.745Z,-1.00
2024-01-07T09:54:15.562Z,-1.00
2024-01-07T09:56:52.173Z,-1.00
2024-01-07T09:59:20.529Z,-0.90
2024-01-07T10:01:50.675Z,-0.90
2024-01-07T10:04:19.930Z,-0.70
2024-01-07T10:06:50.026Z,-0.60
2024-01-07T10:09:19.973Z,-0.60
2024-01-07T10:11:49.556Z,-0.60
2024-01-07T10:14:20.688Z,-0.50
2024-01-07T10:16:48.849Z,-0.60
2024-01-07T10:19:23.148Z,-0.60
2024-01-07T10:22:02.712Z,-0.70
2024-01-07T10:24:39.337Z,-0.80
2024-01-07T10:27:09.878Z,-0.80
2024-01-07T10:29:38.737Z,-0.70
2024-01-07T10:32:07.526Z,-0.50
2024-01-07T10:34:37.497Z,-0.50
2024-01-07T10:37:07.170Z,-0.40
2024-01-07T10:39:35.576Z,-0.40
2024-01-07T10:42:04.388Z,-0.40
2024-01-07T10:44:36.435Z,-0.30
2024-01-07T10:47:08.708Z,0.00
2024-01-07T10:49:38.919Z,-0.10
2024-01-07T10:52:09.099Z,-0.10
2024-01-07T10:54:38.538Z,-0.20
2024-01-07T10:57:14.747Z,-0.20
2024-01-07T10:59:46.898Z,-0.20
2024-01-07T11:02:16.272Z,-0.20
2024-01-07T11:04:52.878Z,-0.10
2024-01-07T11:07:35.909Z,-0.20
2024-01-07T11:10:10.888Z,-0.20
2024-01-07T11:12:39.354Z,-0.20
2024-01-07T11:17:46.856Z,-0.20
2024-01-07T11:20:21.123Z,-0.40
2024-01-07T11:22:49.438Z,-0.40
2024-01-07T11:25:34.590Z,-0.40
2024-01-07T11:28:04.270Z,-0.40
2024-01-07T11:30:42.258Z,-0.30
2024-01-07T11:33:14.805Z,-0.20
2024-01-07T11:35:59.306Z,-0.10
2024-01-07T11:38:27.886Z,-0.10
2024-01-07T11:40:58.054Z,0.10
2024-01-07T11:43:26.537Z,0.00
2024-01-07T11:45:56.934Z,-0.10
2024-01-07T11:48:25.298Z,-0.10
2024-01-07T11:50:55.249Z,0.10
2024-01-07T11:53:24.754Z,0.20
2024-01-07T11:55:53.555Z,0.30
2024-01-07T11:58:22.534Z,0.30
2024-01-07T12:00:51.581Z,0.20
2024-01-07T12:03:21.219Z,0.10
2024-01-07T12:05:50.423Z,0.10
2024-01-07T12:08:18.972Z,0.10
2024-01-07T12:10:47.749Z,0.00
2024-01-07T12:13:16.375Z,0.00
2024-01-07T12:15:45.567Z,0.00
2024-01-07T12:18:13.985Z,-0.10
2024-01-07T12:20:43.476Z,-0.20
2024-01-07T12:23:12.217Z,-0.20
2024-01-07T12:25:40.401Z,-0.20
2024-01-07T12:28:10.517Z,-0.10
2024-01-07T12:30:39.641Z,-0.10
2024-01-07T12:33:08.103Z,-0.10
2024-01-07T12:35:37.052Z,-0.10
2024-01-07T12:38:07.578Z,-0.20
2024-01-07T12:40:36.058Z,-0.30
2024-01-07T12:43:04.807Z,-0.40
2024-01-07T12:45:33.916Z,-0.40
2024-01-07T12:48:03.900Z,-0.50
2024-01-07T12:50:32.946Z,-0.40
2024-01-07T12:53:01.359Z,-0.30
2024-01-07T12:55:31.003Z,-0.40
2024-01-07T12:57:59.637Z,-0.50
2024-01-07T13:00:29.572Z,-0.50
2024-01-07T13:03:01.295Z,-0.50
2024-01-07T13:05:30.279Z,-0.60
2024-01-07T13:07:58.902Z,-0.50
2024-01-07T13:10:28.590Z,-0.40
2024-01-07T13:13:05.029Z,-0.50
2024-01-07T13:15:36.943Z,-0.40
2024-01-07T13:18:05.814Z,-0.50
2024-01-07T13:20:35.499Z,-0.50
2024-01-07T13:23:05.499Z,-0.40
2024-01-07T13:25:33.762Z,-0.40
2024-01-07T13:28:03.747Z,-0.40
2024-01-07T13:30:32.354Z,-0.40
2024-01-07T13:33:02.320Z,-0.60
2024-01-07T13:35:32.114Z,-0.80
2024-01-07T13:38:00.672Z,-0.80
2024-01-07T13:40:29.123Z,-0.70
2024-01-07T13:42:57.371Z,-0.80
2024-01-07T13:45:26.960Z,-0.90
2024-01-07T13:47:55.235Z,-0.90
2024-01-07T13:50:23.651Z,-1.00
2024-01-07T13:52:52.154Z,-1.10
2024-01-07T13:55:20.662Z,-1.20
2024-01-07T13:57:49.263Z,-1.10
2024-01-07T14:00:20.060Z,-1.10
2024-01-07T14:02:50.151Z,-1.30
2024-01-07T14:05:20.711Z,-1.20
2024-01-07T14:07:49.397Z,-1.40
2024-01-07T14:10:21.138Z,-1.40
2024-01-07T14:12:53.902Z,-1.60
2024-01-07T14:15:22.050Z,-1.40
2024-01-07T14:17:51.710Z,-1.50
2024-01-07T14:20:19.932Z,-1.50
2024-01-07T14:22:48.187Z,-1.50
2024-01-07T14:25:16.622Z,-1.50
2024-01-07T14:27:45.789Z,-1.50
2024-01-07T14:30:15.019Z,-1.60
2024-01-07T14:32:45.326Z,-1.60
2024-01-07T14:35:15.215Z,-1.70
2024-01-07T14:37:43.495Z,-1.80
2024-01-07T14:40:12.210Z,-1.90
2024-01-07T14:42:40.450Z,-1.80
2024-01-07T14:45:09.724Z,-1.80
2024-01-07T14:47:38.017Z,-1.90
2024-01-07T14:50:08.618Z,-1.90
2024-01-07T14:52:38.440Z,-1.90
2024-01-07T14:55:07.307Z,-1.80
2024-01-07T14:57:35.658Z,-1.80
2024-01-07T15:00:06.020Z,-1.90
2024-01-07T15:02:34.382Z,-1.90
2024-01-07T15:05:02.852Z,-1.80
2024-01-07T15:07:31.397Z,-1.70
2024-01-07T15:10:01.187Z,-1.80
2024-01-07T15:12:36.625Z,-1.90
2024-01-07T15:15:06.857Z,-1.80
2024-01-07T15:17:35.414Z,-1.80
2024-01-07T15:20:04.047Z,-1.60
2024-01-07T15:22:32.421Z,-1.40
2024-01-07T15:25:02.042Z,-1.50
2024-01-07T15:27:30.693Z,-1.70
2024-01-07T15:29:58.966Z,-1.80
2024-01-07T15:32:28.793Z,-1.80
2024-01-07T15:34:57.783Z,-1.80
2024-01-07T15:37:26.369Z,-1.90
2024-01-07T15:39:55.718Z,-1.90
2024-01-07T15:42:26.152Z,-2.00
2024-01-07T15:44:54.408Z,-2.00
2024-01-07T15:47:24.128Z,-2.00
2024-01-07T15:49:52.450Z,-2.00
2024-01-07T15:52:20.592Z,-2.00
2024-01-07T15:54:48.953Z,-2.10
2024-01-07T15:57:17.303Z,-2.10
2024-01-07T15:59:46.790Z,-2.10
2024-01-07T16:02:16.749Z,-2.30
2024-01-07T16:04:45.193Z,-2.20
2024-01-07T16:07:13.530Z,-2.20
2024-01-07T16:09:42.857Z,-2.30
2024-01-07T16:12:14.819Z,-2.40
2024-01-07T16:14:43.922Z,-2.30
2024-01-07T16:17:13.489Z,-2.40
2024-01-07T16:19:41.689Z,-2.50
2024-01-07T16:22:11.791Z,-2.40
2024-01-07T16:24:41.503Z,-2.40
2024-01-07T16:27:10.218Z,-2.50
2024-01-07T16:29:44.735Z,-2.60
2024-01-07T16:32:16.067Z,-2.60
2024-01-07T16:34:44.312Z,-2.50
2024-01-07T16:37:12.508Z,-2.50
2024-01-07T16:39:41.330Z,-2.50
2024-01-07T16:42:09.756Z,-2.40
2024-01-07T16:44:38.778Z,-2.40
2024-01-07T16:47:08.712Z,-2.40
2024-01-07T16:50:19.737Z,-2.40
2024-01-07T16:52:27.641Z,-2.40
2024-01-07T16:54:55.968Z,-2.40
2024-01-07T16:57:24.375Z,-2.40
2024-01-07T16:59:52.972Z,-2.30
2024-01-07T17:02:21.272Z,-2.30
2024-01-07T17:04:51.119Z,-2.20
2024-01-07T17:07:20.213Z,-2.10
2024-01-07T17:09:48.630Z,-2.10
2024-01-07T17:12:17.133Z,-2.10
2024-01-07T17:14:46.012Z,-2.00
2024-01-07T17:17:14.273Z,-2.00
2024-01-07T17:19:43.612Z,-2.00
2024-01-07T17:22:13.205Z,-2.00
2024-01-07T17:24:42.725Z,-2.00
2024-01-07T17:27:10.918Z,-2.00
2024-01-07T17:29:39.145Z,-2.00
2024-01-07T17:32:10.516Z,-2.00
2024-01-07T17:34:38.952Z,-1.90
2024-01-07T17:37:07.612Z,-1.90
2024-01-07T17:39:37.248Z,-1.90
2024-01-07T17:42:07.059Z,-1.80
2024-01-07T17:44:35.515Z,-1.90
2024-01-07T17:47:03.787Z,-1.90
2024-01-07T17:49:32.050Z,-1.90
2024-01-07T17:52:00.330Z,-1.80
2024-01-07T17:54:28.484Z,-1.80
2024-01-07T17:56:58.142Z,-1.70
2024-01-07T17:59:26.592Z,-1.70
2024-01-07T18:01:56.428Z,-1.70
2024-01-07T18:04:27.184Z,-1.70
2024-01-07T18:06:55.516Z,-1.70
2024-01-07T18:09:23.747Z,-1.60
2024-01-07T18:11:52.036Z,-1.60
2024-01-07T18:14:22.993Z,-1.50
2024-01-07T18:16:51.563Z,-1.50
2024-01-07T18:19:20.050Z,-1.60
2024-01-07T18:21:48.865Z,-1.60
2024-01-07T18:24:18.460Z,-1.60
2024-01-07T18:26:47.243Z,-1.70
2024-01-07T18:29:15.479Z,-1.60
2024-01-07T18:31:45.217Z,-1.70
2024-01-07T18:34:13.597Z,-1.70
2024-01-07T18:36:41.984Z,-1.80
2024-01-07T18:39:10.174Z,-1.70
2024-01-07T18:41:38.865Z,-1.70
2024-01-07T18:44:08.601Z,-1.70
2024-01-07T18:46:36.950Z,-1.80
2024-01-07T18:49:06.538Z,-1.90
2024-01-07T18:51:34.690Z,-1.90
2024-01-07T18:54:02.813Z,-1.90
2024-01-07T18:56:31.032Z,-1.90
2024-01-07T18:58:59.388Z,-1.80
2024-01-07T19:01:28.852Z,-1.90
2024-01-07T19:03:57.381Z,-1.80
2024-01-07T19:06:26.950Z,-1.80
2024-01-07T19:08:55.103Z,-1.90
2024-01-07T19:11:23.352Z,-1.90
2024-01-07T19:13:51.812Z,-1.90
2024-01-07T19:16:20.034Z,-1.90
2024-01-07T19:18:48.412Z,-1.90
2024-01-07T19:21:17.952Z,-1.90
2024-01-07T19:23:47.548Z,-1.90
2024-01-07T19:26:15.798Z,-1.90
2024-01-07T19:28:44.210Z,-2.00
2024-01-07T19:31:12.434Z,-1.90
2024-01-07T19:33:44.677Z,-2.00
2024-01-07T19:36:14.057Z,-1.90
2024-01-07T19:38:42.454Z,-2.00
2024-01-07T19:41:21.666Z,-2.00
2024-01-07T19:43:51.610Z,-2.00
2024-01-07T19:46:26.597Z,-2.00
2024-01-07T19:48:55.651Z,-2.10
2024-01-07T19:51:24.283Z,-2.10
2024-01-07T19:53:54.253Z,-2.10
2024-01-07T19:56:24.257Z,-2.10
2024-01-07T19:58:53.238Z,-2.10
2024-01-07T20:01:21.634Z,-2.10
2024-01-07T20:03:50.058Z,-2.10
2024-01-07T20:06:18.374Z,-2.20
2024-01-07T20:08:49.241Z,-2.20
2024-01-07T20:11:20.810Z,-2.20
2024-01-07T20:13:50.835Z,-2.20
2024-01-07T20:16:21.443Z,-2.20
2024-01-07T20:18:53.156Z,-2.20
2024-01-07T20:21:23.352Z,-2.10
2024-01-07T20:23:54.981Z,-2.10
2024-01-07T20:26:23.245Z,-2.20
2024-01-07T20:28:54.614Z,-2.10
2024-01-07T20:31:23.668Z,-2.20
2024-01-07T20:33:53.226Z,-2.20
2024-01-07T20:36:21.491Z,-2.20
2024-01-07T20:38:49.879Z,-2.10
2024-01-07T20:41:20.601Z,-2.10
2024-01-07T20:43:49.127Z,-2.20
2024-01-07T20:46:18.911Z,-2.20
2024-01-07T20:48:47.282Z,-2.10
2024-01-07T20:51:16.005Z,-2.00
2024-01-07T20:53:44.418Z,-2.10
2024-01-07T20:56:12.919Z,-2.10
2024-01-07T20:58:41.135Z,-2.20
2024-01-07T21:01:09.398Z,-2.20
2024-01-07T21:03:39.066Z,-2.20
2024-01-07T21:06:08.037Z,-2.10
2024-01-07T21:08:36.635Z,-2.20
2024-01-07T21:11:06.295Z,-2.10
2024-01-07T21:13:34.880Z,-2.10
2024-01-07T21:16:03.965Z,-2.20
2024-01-07T21:18:32.358Z,-2.20
2024-01-07T21:21:02.887Z,-2.20
2024-01-07T21:23:33.146Z,-2.20
2024-01-07T21:26:01.771Z,-2.10
2024-01-07T21:28:30.767Z,-2.00
2024-01-07T21:31:03.489Z,-2.10
2024-01-07T21:33:31.808Z,-2.20
2024-01-07T21:36:01.799Z,-2.20
2024-01-07T21:38:30.268Z,-2.20
2024-01-07T21:40:58.534Z,-2.00
2024-01-07T21:43:26.712Z,-2.00
2024-01-07T21:45:54.930Z,-2.00
2024-01-07T21:48:23.186Z,-2.00
2024-01-07T21:50:51.578Z,-1.90
2024-01-07T21:53:21.230Z,-1.90
2024-01-07T21:55:49.462Z,-2.00
2024-01-07T21:58:19.547Z,-1.90
2024-01-07T22:00:48.583Z,-2.00
2024-01-07T22:03:16.949Z,-1.90
2024-01-07T22:05:45.226Z,-1.90
2024-01-07T22:08:13.508Z,-1.80
2024-01-07T22:10:43.291Z,-1.80
2024-01-07T22:13:11.441Z,-1.80
2024-01-07T22:15:39.537Z,-1.60
2024-01-07T22:18:08.229Z,-1.40
2024-01-07T22:20:37.038Z,-1.40
2024-01-07T22:23:05.465Z,-1.40
2024-01-07T22:25:33.586Z,-1.40
2024-01-07T22:28:03.127Z,-1.50
2024-01-07T22:30:31.406Z,-1.60
2024-01-07T22:33:01.866Z,-1.50
2024-01-07T22:35:30.541Z,-1.50
2024-01-07T22:37:58.736Z,-1.50
2024-01-07T22:40:26.911Z,-1.40
2024-01-07T22:42:56.277Z,-1.40
2024-01-07T22:45:28.846Z,-1.30
2024-01-07T22:47:57.425Z,-1.40
2024-01-07T22:50:25.966Z,-1.40
2024-01-07T22:52:54.172Z,-1.40
2024-01-07T22:55:22.409Z,-1.40
2024-01-07T22:57:50.656Z,-1.20
2024-01-07T23:00:24.845Z,-1.20
2024-01-07T23:02:54.431Z,-1.30
2024-01-07T23:05:22.893Z,-1.30
2024-01-07T23:07:51.131Z,-1.30
2024-01-07T23:10:19.482Z,-1.40
2024-01-07T23:12:47.891Z,-1.40
2024-01-07T23:15:16.388Z,-1.40
2024-01-07T23:17:44.891Z,-1.40
2024-01-07T23:20:15.079Z,-1.40
2024-01-07T23:22:43.280Z,-1.40
2024-01-07T23:25:11.488Z,-1.30
2024-01-07T23:27:40.681Z,-1.30
2024-01-07T23:30:10.310Z,-1.20
2024-01-07T23:32:38.496Z,-1.30
2024-01-07T23:35:07.524Z,-1.20
2024-01-07T23:37:37.151Z,-1.30
2024-01-07T23:40:06.260Z,-1.30
2024-01-07T23:42:34.406Z,-1.20
2024-01-07T23:45:02.553Z,-1.30
2024-01-07T23:47:30.794Z,-1.40
2024-01-07T23:49:59.134Z,-1.40
2024-01-07T23:52:29.160Z,-1.20
2024-01-07T23:54:59.637Z,-1.30
2024-01-07T23:57:27.797Z,-1.30
2024-01-07T23:59:55.974Z,-1.20
